Festivo — EAEQ — position and weather

sailwx.info

Track history (hours):
 
Tides and Currents Weather Stations Pressure Air Temp Water Temp Dewpoint Dewpoint Depression Visibility Wind Speed Wind Dir Waves Ship Positions

Festivo

Last reported at 2016-Aug-30 09:33 UTC. Time now 2016-Aug-30 22:35 UTC.
Position N 35°60' W 005°12'.

Length 136 m; draft 4.5 m.

Type: Cargo ship. MMSI: 225410000.

Date/timePositionNaut miles runAvg speedWind from/ knotsBaromVisibWave heightAir tempDewpointWater temp
2016-Aug-30 09:33N 35°60' W 005°12'8 8.2
2016-Aug-30 08:33N 35°54' W 005°19'0 0.0
2016-Aug-30 07:33N 35°54' W 005°19'0 0.0
2016-Aug-30 06:33N 35°54' W 005°19'0 0.0
2016-Aug-30 05:33N 35°54' W 005°19'0 0.4
2016-Aug-30 04:33N 35°54' W 005°19'6 5.8
2016-Aug-30 03:33N 35°58' W 005°14'7 6.9
2016-Aug-30 02:31N 36°02' W 005°07'79 2.2
2016-Aug-28 14:16N 35°55' W 003°30'710.2
2016-Aug-28 13:33N 35°50' W 003°24'39 4.3
2016-Aug-28 04:30N 35°19' W 002°55'7 7.4
2016-Aug-28 03:31N 35°26' W 002°55'  
2016-Aug-25 10:16N 35°59' W 005°12'710.0
2016-Aug-25 09:33N 35°54' W 005°19'1 0.8
2016-Aug-25 08:33N 35°54' W 005°19'0 0.0
2016-Aug-25 07:33N 35°54' W 005°19'3 3.4
2016-Aug-25 06:33N 35°56' W 005°16'9 0.2
2016-Aug-23 10:24N 36°03' W 005°09'910.6
2016-Aug-23 09:33N 35°57' W 005°17'4 3.4
2016-Aug-23 08:32N 35°54' W 005°19'0 0.0
2016-Aug-23 07:32N 35°54' W 005°19'0 0.0
2016-Aug-23 06:32N 35°54' W 005°19'0 0.0
2016-Aug-23 05:32N 35°54' W 005°19'1 1.3
2016-Aug-23 04:33N 35°55' W 005°18'6 5.5
2016-Aug-23 03:33N 35°58' W 005°13'  
Track history (hours):
 
Tides and Currents Weather Stations Pressure Air Temp Water Temp Dewpoint Dewpoint Depression Visibility Wind Speed Wind Dir Waves Ship Positions

Festivo

Last reported at 2016-Aug-30 09:33 UTC. Time now 2016-Aug-30 22:35 UTC.
Position N 35°60' W 005°12'.

Length 136 m; draft 4.5 m.

Type: Cargo ship. MMSI: 225410000.

Date/timePositionNaut miles runAvg speedWind from/ knotsBaromVisibWave heightAir tempDewpointWater temp
2016-Aug-30 09:33N 35°60' W 005°12'8 8.2
2016-Aug-30 08:33N 35°54' W 005°19'0 0.0
2016-Aug-30 07:33N 35°54' W 005°19'0 0.0
2016-Aug-30 06:33N 35°54' W 005°19'0 0.0
2016-Aug-30 05:33N 35°54' W 005°19'0 0.4
2016-Aug-30 04:33N 35°54' W 005°19'6 5.8
2016-Aug-30 03:33N 35°58' W 005°14'7 6.9
2016-Aug-30 02:31N 36°02' W 005°07'79 2.2
2016-Aug-28 14:16N 35°55' W 003°30'710.2
2016-Aug-28 13:33N 35°50' W 003°24'39 4.3
2016-Aug-28 04:30N 35°19' W 002°55'7 7.4
2016-Aug-28 03:31N 35°26' W 002°55'  
2016-Aug-25 10:16N 35°59' W 005°12'710.0
2016-Aug-25 09:33N 35°54' W 005°19'1 0.8
2016-Aug-25 08:33N 35°54' W 005°19'0 0.0
2016-Aug-25 07:33N 35°54' W 005°19'3 3.4
2016-Aug-25 06:33N 35°56' W 005°16'9 0.2
2016-Aug-23 10:24N 36°03' W 005°09'910.6
2016-Aug-23 09:33N 35°57' W 005°17'4 3.4
2016-Aug-23 08:32N 35°54' W 005°19'0 0.0
2016-Aug-23 07:32N 35°54' W 005°19'0 0.0
2016-Aug-23 06:32N 35°54' W 005°19'0 0.0
2016-Aug-23 05:32N 35°54' W 005°19'1 1.3
2016-Aug-23 04:33N 35°55' W 005°18'6 5.5
2016-Aug-23 03:33N 35°58' W 005°13'  

Dump ship's entire track history